createdAt,value
2022-07-29T00:00:35.548Z,3.97
2022-07-29T00:05:20.668Z,3.90
2022-07-29T00:10:07.925Z,3.67
2022-07-29T00:14:53.207Z,3.90
2022-07-29T00:19:43.817Z,4.20
2022-07-29T00:24:30.810Z,4.00
2022-07-29T00:29:33.962Z,4.10
2022-07-29T00:34:32.332Z,3.70
2022-07-29T00:39:20.102Z,4.13
2022-07-29T00:44:05.454Z,3.92
2022-07-29T00:48:50.651Z,3.80
2022-07-29T00:53:36.287Z,4.10
2022-07-29T00:58:23.938Z,3.65
2022-07-29T01:03:09.277Z,4.60
2022-07-29T01:07:58.214Z,3.78
2022-07-29T01:12:44.611Z,4.43
2022-07-29T01:17:37.483Z,4.45
2022-07-29T01:22:39.337Z,4.50
2022-07-29T01:27:42.477Z,4.10
2022-07-29T01:32:33.505Z,4.25
2022-07-29T01:37:23.904Z,4.50
2022-07-29T01:42:18.588Z,4.45
2022-07-29T01:47:14.618Z,4.85
2022-07-29T01:52:07.569Z,4.28
2022-07-29T01:56:55.589Z,4.50
2022-07-29T02:01:43.949Z,4.57
2022-07-29T02:06:31.365Z,4.60
2022-07-29T02:11:19.714Z,4.47
2022-07-29T02:16:07.373Z,4.40
2022-07-29T02:20:56.886Z,4.28
2022-07-29T02:25:42.811Z,4.88
2022-07-29T02:30:32.596Z,4.40
2022-07-29T02:35:19.092Z,4.68
2022-07-29T02:40:06.118Z,5.05
2022-07-29T02:44:51.231Z,4.78
2022-07-29T02:49:41.437Z,4.35
2022-07-29T02:54:35.026Z,4.63
2022-07-29T02:59:26.059Z,4.30
2022-07-29T03:04:14.035Z,4.37
2022-07-29T03:09:06.582Z,4.00
2022-07-29T03:13:54.915Z,4.20
2022-07-29T03:18:40.625Z,4.28
2022-07-29T03:23:35.319Z,4.57
2022-07-29T03:28:27.034Z,4.47
2022-07-29T03:33:13.750Z,4.75
2022-07-29T03:37:59.222Z,4.35
2022-07-29T03:42:46.444Z,4.50
2022-07-29T03:47:50.242Z,4.07
2022-07-29T03:52:37.866Z,3.55
2022-07-29T03:57:24.727Z,4.93
2022-07-29T04:02:14.837Z,4.97
2022-07-29T04:07:04.854Z,4.97
2022-07-29T04:12:02.453Z,5.30
2022-07-29T04:16:48.691Z,6.03
2022-07-29T04:21:34.027Z,5.53
2022-07-29T04:26:21.855Z,6.05
2022-07-29T04:31:08.173Z,6.03
2022-07-29T04:35:55.003Z,6.50
2022-07-29T04:40:40.979Z,6.03
2022-07-29T04:45:29.278Z,5.60
2022-07-29T04:50:15.111Z,6.68
2022-07-29T04:55:00.142Z,6.65
2022-07-29T04:59:45.539Z,5.68
2022-07-29T05:04:33.197Z,6.30
2022-07-29T05:09:18.621Z,5.88
2022-07-29T05:14:03.795Z,6.65
2022-07-29T05:18:49.136Z,7.28
2022-07-29T05:23:36.824Z,6.57
2022-07-29T05:28:22.249Z,6.65
2022-07-29T05:33:07.394Z,7.40
2022-07-29T05:37:52.763Z,7.20
2022-07-29T05:42:40.437Z,7.90
2022-07-29T05:47:26.378Z,8.90
2022-07-29T05:52:11.676Z,7.32
2022-07-29T05:56:57.253Z,7.40
2022-07-29T06:01:45.027Z,7.55
2022-07-29T06:06:30.414Z,7.20
2022-07-29T06:11:15.557Z,7.50
2022-07-29T06:16:00.952Z,7.25
2022-07-29T06:20:48.834Z,7.40
2022-07-29T06:25:36.583Z,7.32
2022-07-29T06:30:21.726Z,8.23
2022-07-29T06:35:37.828Z,8.93
2022-07-29T06:40:28.963Z,8.45
2022-07-29T06:45:15.489Z,8.97
2022-07-29T06:50:01.015Z,15.07
2022-07-29T06:54:49.252Z,9.77
2022-07-29T06:59:36.939Z,8.75
2022-07-29T07:04:22.294Z,7.68
2022-07-29T07:09:07.777Z,5.60
2022-07-29T07:13:53.201Z,5.55
2022-07-29T07:18:40.847Z,5.03
2022-07-29T07:23:26.283Z,4.63
2022-07-29T07:28:11.423Z,3.78
2022-07-29T07:32:56.880Z,3.10
2022-07-29T07:37:45.034Z,2.75
2022-07-29T07:42:30.594Z,2.70
2022-07-29T07:47:16.746Z,2.50
2022-07-29T07:52:06.549Z,2.92
2022-07-29T07:56:54.448Z,2.25
2022-07-29T08:01:47.844Z,2.53
2022-07-29T08:06:41.221Z,2.88
2022-07-29T08:11:26.298Z,2.15
2022-07-29T08:16:16.960Z,1.90
2022-07-29T08:21:02.587Z,2.00
2022-07-29T08:25:50.348Z,1.75
2022-07-29T08:30:35.568Z,1.58
2022-07-29T08:35:23.905Z,1.75
2022-07-29T08:40:10.133Z,1.63
2022-07-29T08:44:55.798Z,1.77
2022-07-29T08:49:41.793Z,1.60
2022-07-29T08:54:30.093Z,1.60
2022-07-29T08:59:16.640Z,1.65
2022-07-29T09:04:04.369Z,1.70
2022-07-29T09:08:49.867Z,1.40
2022-07-29T09:13:38.034Z,1.60
2022-07-29T09:18:38.865Z,1.17
2022-07-29T09:23:24.987Z,1.33
2022-07-29T09:28:11.678Z,1.20
2022-07-29T09:33:04.746Z,1.50
2022-07-29T09:37:50.470Z,1.33
2022-07-29T09:42:35.846Z,1.23
2022-07-29T09:47:22.935Z,1.23
2022-07-29T09:52:13.769Z,1.40
2022-07-29T09:56:59.510Z,1.27
2022-07-29T10:01:45.153Z,1.27
2022-07-29T10:06:30.541Z,1.30
2022-07-29T10:11:23.176Z,1.42
2022-07-29T10:16:09.867Z,0.90
2022-07-29T10:20:56.693Z,1.00
2022-07-29T10:25:46.244Z,1.10
2022-07-29T10:30:35.974Z,1.20
2022-07-29T10:35:35.638Z,1.10
2022-07-29T10:40:43.851Z,1.20
2022-07-29T10:45:30.567Z,0.82
2022-07-29T10:50:20.686Z,1.10
2022-07-29T10:55:08.347Z,0.80
2022-07-29T10:59:55.891Z,0.95
2022-07-29T11:05:06.442Z,1.10
2022-07-29T11:10:22.472Z,1.10
2022-07-29T11:15:18.669Z,0.90
2022-07-29T11:20:33.927Z,0.82
2022-07-29T11:25:42.902Z,0.82
2022-07-29T11:30:54.463Z,0.68
2022-07-29T11:35:40.753Z,0.90
2022-07-29T11:40:26.671Z,0.90
2022-07-29T11:45:42.976Z,0.80
2022-07-29T11:50:44.431Z,0.70
2022-07-29T11:55:33.936Z,0.80
2022-07-29T12:00:31.314Z,0.77
2022-07-29T12:05:35.811Z,0.70
2022-07-29T12:10:34.626Z,0.60
2022-07-29T12:15:22.287Z,0.40
2022-07-29T12:20:10.239Z,0.50
2022-07-29T12:25:11.509Z,0.40
2022-07-29T12:30:09.831Z,0.55
2022-07-29T12:34:54.981Z,0.70
2022-07-29T12:39:42.487Z,0.75
2022-07-29T12:44:28.680Z,0.50
2022-07-29T12:49:27.057Z,0.50
2022-07-29T12:54:15.513Z,0.57
2022-07-29T12:59:01.671Z,0.50
2022-07-29T13:03:57.470Z,0.30
2022-07-29T13:09:05.791Z,0.50
2022-07-29T13:14:05.902Z,0.45
2022-07-29T13:19:07.428Z,0.70
2022-07-29T13:23:56.216Z,0.60
2022-07-29T13:28:44.309Z,0.50
2022-07-29T13:33:32.125Z,0.32
2022-07-29T13:38:18.242Z,0.73
2022-07-29T13:43:06.885Z,0.52
2022-07-29T13:47:53.600Z,0.60
2022-07-29T13:52:40.087Z,0.60
2022-07-29T13:57:25.983Z,0.60
2022-07-29T14:02:25.403Z,0.50
2022-07-29T14:07:12.071Z,0.85
2022-07-29T14:12:03.811Z,0.75
2022-07-29T14:16:52.439Z,0.80
2022-07-29T14:21:41.280Z,0.70
2022-07-29T14:26:28.571Z,0.65
2022-07-29T14:31:14.610Z,0.70
2022-07-29T14:36:01.195Z,0.60
2022-07-29T14:40:50.918Z,0.77
2022-07-29T14:45:37.440Z,0.80
2022-07-29T14:50:31.373Z,0.60
2022-07-29T14:55:20.225Z,0.90
2022-07-29T15:00:11.143Z,0.70
2022-07-29T15:04:57.886Z,0.80
2022-07-29T15:09:49.407Z,0.82
2022-07-29T15:14:39.038Z,0.80
2022-07-29T15:19:27.551Z,0.80
2022-07-29T15:24:13.709Z,0.90
2022-07-29T15:28:59.894Z,1.05
2022-07-29T15:33:52.410Z,0.73
2022-07-29T15:38:45.607Z,0.80
2022-07-29T15:43:31.763Z,0.80
2022-07-29T15:48:17.581Z,0.90
2022-07-29T15:53:07.482Z,1.08
2022-07-29T15:58:00.459Z,0.80
2022-07-29T16:02:46.478Z,1.00
2022-07-29T16:07:32.752Z,0.90
2022-07-29T16:12:18.995Z,0.80
2022-07-29T16:17:07.547Z,1.13
2022-07-29T16:21:55.940Z,1.05
2022-07-29T16:26:45.534Z,1.02
2022-07-29T16:31:31.645Z,1.30
2022-07-29T16:36:20.361Z,1.08
2022-07-29T16:41:09.354Z,1.10
2022-07-29T16:45:55.265Z,0.88
2022-07-29T16:50:43.366Z,1.00
2022-07-29T16:55:32.151Z,1.08
2022-07-29T17:00:22.013Z,1.33
2022-07-29T17:05:08.397Z,2.20
2022-07-29T17:09:57.025Z,1.50
2022-07-29T17:14:48.023Z,1.00
2022-07-29T17:19:35.743Z,1.20
2022-07-29T17:24:23.531Z,3.45
2022-07-29T17:29:10.374Z,1.10
2022-07-29T17:34:00.162Z,2.03
2022-07-29T17:38:46.347Z,1.23
2022-07-29T17:43:32.209Z,1.08
2022-07-29T17:48:18.255Z,1.30
2022-07-29T17:53:13.965Z,3.10
2022-07-29T17:58:02.147Z,2.17
2022-07-29T18:02:48.217Z,1.60
2022-07-29T18:07:34.799Z,1.77
2022-07-29T18:12:23.355Z,1.30
2022-07-29T18:17:09.448Z,1.92
2022-07-29T18:21:57.312Z,1.17
2022-07-29T18:26:45.269Z,1.30
2022-07-29T18:31:33.674Z,1.10
2022-07-29T18:36:19.904Z,1.10
2022-07-29T18:41:08.272Z,1.27
2022-07-29T18:45:54.303Z,1.23
2022-07-29T18:50:43.459Z,1.27
2022-07-29T18:55:29.888Z,1.00
2022-07-29T19:00:16.653Z,1.05
2022-07-29T19:05:03.032Z,1.15
2022-07-29T19:09:51.373Z,1.00
2022-07-29T19:14:37.401Z,1.25
2022-07-29T19:19:23.260Z,1.20
2022-07-29T19:24:15.204Z,1.30
2022-07-29T19:29:04.099Z,1.20
2022-07-29T19:33:50.222Z,1.25
2022-07-29T19:38:36.119Z,1.20
2022-07-29T19:43:50.562Z,1.15
2022-07-29T19:48:31.342Z,1.10
2022-07-29T19:53:16.932Z,1.08
2022-07-29T19:58:03.639Z,1.13
2022-07-29T20:02:53.203Z,1.40
2022-07-29T20:07:43.165Z,1.40
2022-07-29T20:12:28.990Z,1.30
2022-07-29T20:17:15.268Z,1.30
2022-07-29T20:22:01.048Z,1.40
2022-07-29T20:26:49.906Z,1.77
2022-07-29T20:31:35.837Z,1.83
2022-07-29T20:36:21.878Z,1.77
2022-07-29T20:41:07.756Z,1.35
2022-07-29T20:45:56.437Z,1.40
2022-07-29T20:50:43.048Z,1.80
2022-07-29T20:55:29.232Z,1.40
2022-07-29T21:00:15.862Z,1.85
2022-07-29T21:05:04.559Z,1.63
2022-07-29T21:09:51.383Z,1.60
2022-07-29T21:14:52.825Z,1.92
2022-07-29T21:19:39.086Z,1.80
2022-07-29T21:24:27.552Z,1.80
2022-07-29T21:29:12.956Z,1.90
2022-07-29T21:33:58.003Z,1.65
2022-07-29T21:38:43.433Z,1.67
2022-07-29T21:43:31.234Z,1.92
2022-07-29T21:48:16.787Z,1.90
2022-07-29T21:53:01.838Z,2.20
2022-07-29T21:57:49.561Z,2.38
2022-07-29T22:02:37.196Z,2.53
2022-07-29T22:07:22.507Z,2.35
2022-07-29T22:12:08.446Z,2.60
2022-07-29T22:16:57.979Z,2.67
2022-07-29T22:21:47.378Z,2.90
2022-07-29T22:26:32.984Z,2.50
2022-07-29T22:31:18.200Z,2.22
2022-07-29T22:36:03.610Z,2.30
2022-07-29T22:40:51.538Z,2.25
2022-07-29T22:45:37.020Z,2.72
2022-07-29T22:50:22.306Z,2.72
2022-07-29T22:55:08.494Z,2.75
2022-07-29T22:59:56.189Z,3.08
2022-07-29T23:04:41.511Z,3.17
2022-07-29T23:09:26.588Z,3.40
2022-07-29T23:14:12.053Z,3.13
2022-07-29T23:18:59.746Z,3.40
2022-07-29T23:23:45.908Z,3.72
2022-07-29T23:28:30.981Z,3.10
2022-07-29T23:33:16.312Z,3.10
2022-07-29T23:38:04.468Z,2.95
2022-07-29T23:42:49.818Z,2.90
2022-07-29T23:47:35.010Z,3.00
2022-07-29T23:52:20.454Z,3.00
2022-07-29T23:57:08.151Z,4.00
